Time;durP1;ratioP1;P1;durP2;ratioP2;P2;SDS_P1;SDS_P2;PMS_P1;PMS_P2;Temp;Humidity;BMP_temperature;BMP_pressure;BME280_temperature;BME280_humidity;BME280_pressure;Samples;Min_cycle;Max_cycle;Signal;HPM_P1;HPM_P2
2022/07/17 00:00:42;;;;;;;1.80;1.70;;;22.90;58.60;;;;;;5030115;28;20199;-72
2022/07/17 00:03:12;;;;;;;1.67;1.58;;;23.00;58.70;;;;;;5031039;28;20268;-72
2022/07/17 00:05:38;;;;;;;1.58;1.48;;;22.90;58.60;;;;;;5031047;28;20194;-72
2022/07/17 00:08:06;;;;;;;1.65;1.55;;;22.90;58.60;;;;;;5030741;28;20187;-71
2022/07/17 00:10:34;;;;;;;1.70;1.60;;;23.00;58.70;;;;;;5031448;28;20183;-72
2022/07/17 00:13:00;;;;;;;1.60;1.50;;;22.90;58.60;;;;;;5030904;28;20187;-72
2022/07/17 00:15:26;;;;;;;1.70;1.60;;;22.90;58.60;;;;;;5030973;28;20187;-72
2022/07/17 00:17:51;;;;;;;1.80;1.70;;;22.90;58.60;;;;;;5047390;28;20209;-72
2022/07/17 00:20:17;;;;;;;1.70;1.60;;;22.90;58.60;;;;;;5030235;28;20196;-71
2022/07/17 00:22:43;;;;;;;1.77;1.60;;;22.90;58.60;;;;;;5018928;28;20209;-72
2022/07/17 00:25:10;;;;;;;1.70;1.60;;;22.90;58.60;;;;;;5050640;28;20185;-72
2022/07/17 00:27:37;;;;;;;1.50;1.40;;;22.90;58.60;;;;;;5050417;28;20189;-72
2022/07/17 00:30:04;;;;;;;1.50;1.40;;;22.90;58.60;;;;;;5051190;28;20205;-72
2022/07/17 00:32:30;;;;;;;1.70;1.60;;;22.90;58.60;;;;;;5034014;28;20198;-72
2022/07/17 00:34:57;;;;;;;1.77;1.67;;;22.90;58.70;;;;;;5051728;28;20213;-72
2022/07/17 00:37:23;;;;;;;1.52;1.42;;;22.90;58.60;;;;;;5047554;28;20175;-72
2022/07/17 00:39:49;;;;;;;1.58;1.48;;;22.90;58.60;;;;;;5033209;28;20244;-72
2022/07/17 00:42:16;;;;;;;1.55;1.45;;;22.90;58.60;;;;;;5050288;28;20252;-72
2022/07/17 00:44:44;;;;;;;1.90;1.70;;;22.90;58.60;;;;;;5051474;28;20748;-72
2022/07/17 00:47:19;;;;;;;2.17;1.75;;;22.90;58.70;;;;;;5032821;28;20308;-72
2022/07/17 00:49:46;;;;;;;1.70;1.60;;;22.90;58.60;;;;;;5032772;28;20277;-72
2022/07/17 00:52:15;;;;;;;1.45;1.35;;;22.90;58.70;;;;;;5052377;28;20269;-72
2022/07/17 00:54:43;;;;;;;1.90;1.80;;;22.90;58.60;;;;;;5054027;28;20678;-72
2022/07/17 00:57:13;;;;;;;2.10;1.70;;;22.90;58.60;;;;;;5054074;28;20190;-72
2022/07/17 00:59:41;;;;;;;1.35;1.35;;;22.90;58.60;;;;;;5053732;28;20711;-71
2022/07/17 01:02:12;;;;;;;1.45;1.35;;;22.90;58.60;;;;;;5055201;28;20213;-72
2022/07/17 01:04:39;;;;;;;1.73;1.63;;;22.90;58.50;;;;;;5037271;28;20219;-72
2022/07/17 01:07:06;;;;;;;1.60;1.50;;;22.90;58.60;;;;;;5055119;28;20182;-71
2022/07/17 01:09:33;;;;;;;1.50;1.40;;;22.90;58.60;;;;;;5053835;28;20654;-72
2022/07/17 01:12:00;;;;;;;1.58;1.48;;;22.90;58.60;;;;;;5053535;28;20210;-72
2022/07/17 01:14:27;;;;;;;1.45;1.35;;;22.90;58.50;;;;;;5037193;28;20186;-72
2022/07/17 01:16:55;;;;;;;1.90;1.80;;;22.90;58.50;;;;;;5070574;28;20194;-72
2022/07/17 01:19:21;;;;;;;1.67;1.58;;;22.90;58.60;;;;;;5054930;28;20273;-72
2022/07/17 01:21:50;;;;;;;2.17;2.00;;;22.90;58.50;;;;;;5053040;28;20199;-72
2022/07/17 01:24:19;;;;;;;1.63;1.52;;;22.90;58.50;;;;;;5054854;28;20247;-72
2022/07/17 01:26:48;;;;;;;1.80;1.70;;;22.90;58.50;;;;;;5037116;28;20182;-72
2022/07/17 01:29:16;;;;;;;1.63;1.52;;;22.90;58.50;;;;;;5021002;28;20190;-72
2022/07/17 01:31:43;;;;;;;1.77;1.67;;;22.90;58.50;;;;;;5052954;28;20320;-71
2022/07/17 01:34:12;;;;;;;2.05;1.80;;;22.90;58.50;;;;;;5067741;28;20277;-72
2022/07/17 01:36:38;;;;;;;1.83;1.73;;;22.90;58.60;;;;;;5053587;28;20295;-72
2022/07/17 01:39:05;;;;;;;1.52;1.42;;;22.90;58.50;;;;;;5054769;28;20185;-72
2022/07/17 01:41:31;;;;;;;1.58;1.48;;;22.80;58.40;;;;;;5036251;28;20214;-71
2022/07/17 01:43:58;;;;;;;1.48;1.30;;;22.90;58.50;;;;;;5053335;28;20210;-72
2022/07/17 01:46:24;;;;;;;1.92;1.83;;;22.90;58.50;;;;;;5054501;28;20186;-72
2022/07/17 01:48:50;;;;;;;1.60;1.50;;;22.90;58.40;;;;;;5054577;28;20178;-72
2022/07/17 01:51:16;;;;;;;1.73;1.63;;;22.80;58.30;;;;;;5036268;28;20202;-72
2022/07/17 01:53:42;;;;;;;1.50;1.40;;;22.80;58.30;;;;;;5053032;28;20188;-72
2022/07/17 01:56:08;;;;;;;1.50;1.40;;;22.80;58.30;;;;;;5053209;28;20213;-71
2022/07/17 01:58:34;;;;;;;1.63;1.52;;;22.90;58.30;;;;;;5053047;28;20188;-72
2022/07/17 02:01:00;;;;;;;1.65;1.55;;;22.90;58.30;;;;;;5069120;28;20211;-72
2022/07/17 02:03:26;;;;;;;1.25;1.25;;;22.80;58.30;;;;;;5051928;28;20218;-72
2022/07/17 02:05:52;;;;;;;1.83;1.73;;;22.80;58.30;;;;;;5069576;28;20332;-72
2022/07/17 02:08:17;;;;;;;1.58;1.48;;;22.90;58.30;;;;;;5036223;28;20202;-72
2022/07/17 02:10:43;;;;;;;1.70;1.60;;;22.90;58.40;;;;;;5052238;28;20642;-72
2022/07/17 02:13:09;;;;;;;1.85;1.65;;;22.80;58.30;;;;;;5069532;28;20281;-72
2022/07/17 02:15:35;;;;;;;1.55;1.45;;;22.90;58.30;;;;;;5053925;28;20182;-74
2022/07/17 02:18:00;;;;;;;1.60;1.50;;;22.80;58.30;;;;;;5053889;28;20591;-72
2022/07/17 02:20:26;;;;;;;1.60;1.50;;;22.80;58.30;;;;;;5052263;28;20214;-72
2022/07/17 02:22:52;;;;;;;1.50;1.40;;;22.90;58.30;;;;;;5069515;28;20226;-72
2022/07/17 02:25:18;;;;;;;1.50;1.40;;;22.80;58.30;;;;;;5052724;28;20198;-72
2022/07/17 02:27:44;;;;;;;1.80;1.70;;;22.80;58.30;;;;;;5052117;28;20191;-72
2022/07/17 02:30:14;;;;;;;2.20;2.00;;;22.80;58.30;;;;;;5052112;28;20183;-72
2022/07/17 02:32:41;;;;;;;1.67;1.58;;;22.80;58.30;;;;;;5035826;28;20236;-72
2022/07/17 02:35:10;;;;;;;1.50;1.40;;;22.80;58.30;;;;;;5053956;28;20208;-72
2022/07/17 02:37:36;;;;;;;1.83;1.73;;;22.80;58.30;;;;;;5051224;28;20190;-72
2022/07/17 02:40:04;;;;;;;1.60;1.50;;;22.80;58.30;;;;;;5031899;28;20187;-72
2022/07/17 02:42:30;;;;;;;1.40;1.30;;;22.80;58.30;;;;;;5032213;28;20203;-72
2022/07/17 02:44:58;;;;;;;1.60;1.50;;;22.80;58.30;;;;;;5032169;28;20313;-72
2022/07/17 02:47:31;;;;;;;1.67;1.58;;;22.80;58.30;;;;;;5033355;28;20195;-72
2022/07/17 02:49:57;;;;;;;1.40;1.30;;;22.80;58.30;;;;;;5031818;28;20190;-72
2022/07/17 02:52:23;;;;;;;1.40;1.30;;;22.80;58.30;;;;;;5032040;28;20196;-71
2022/07/17 02:54:49;;;;;;;1.50;1.40;;;22.80;58.30;;;;;;5032091;28;20187;-72
2022/07/17 02:57:16;;;;;;;1.50;1.40;;;22.80;58.30;;;;;;5031956;28;20194;-72
2022/07/17 02:59:41;;;;;;;2.08;1.65;;;22.80;58.20;;;;;;5037282;28;20206;-72
2022/07/17 03:02:07;;;;;;;1.38;1.27;;;22.80;58.20;;;;;;5051310;28;20214;-73
2022/07/17 03:04:33;;;;;;;1.73;1.63;;;22.80;58.30;;;;;;5051838;28;20214;-72
2022/07/17 03:06:59;;;;;;;1.60;1.50;;;22.80;58.30;;;;;;5035012;28;20217;-72
2022/07/17 03:09:25;;;;;;;1.80;1.70;;;22.80;58.30;;;;;;5052938;28;20183;-72
2022/07/17 03:11:52;;;;;;;1.60;1.50;;;22.80;58.30;;;;;;5051278;28;20206;-72
2022/07/17 03:14:18;;;;;;;1.50;1.40;;;22.80;58.30;;;;;;5035098;28;20186;-72
2022/07/17 03:16:44;;;;;;;1.50;1.40;;;22.80;58.20;;;;;;5034944;28;20190;-71
2022/07/17 03:19:09;;;;;;;1.65;1.55;;;22.80;58.30;;;;;;5051784;28;20212;-72
2022/07/17 03:21:35;;;;;;;1.95;1.85;;;22.80;58.30;;;;;;5052032;28;20230;-72
2022/07/17 03:24:01;;;;;;;1.40;1.30;;;22.80;58.30;;;;;;5051380;28;20215;-72
2022/07/17 03:26:27;;;;;;;1.42;1.35;;;22.80;58.30;;;;;;5051420;28;20182;-72
2022/07/17 03:28:52;;;;;;;1.63;1.52;;;22.80;58.30;;;;;;5052571;28;20228;-72
2022/07/17 03:31:18;;;;;;;1.83;1.73;;;22.80;58.30;;;;;;5050754;28;20251;-72
2022/07/17 03:33:44;;;;;;;1.40;1.30;;;22.80;58.30;;;;;;5051364;28;20312;-72
2022/07/17 03:36:09;;;;;;;1.70;1.60;;;22.70;58.20;;;;;;5034557;28;20195;-71
2022/07/17 03:38:35;;;;;;;1.40;1.30;;;22.80;58.30;;;;;;5051399;28;20189;-72
2022/07/17 03:41:01;;;;;;;1.55;1.45;;;22.80;58.20;;;;;;5038568;28;20210;-72
2022/07/17 03:43:27;;;;;;;1.65;1.40;;;22.80;58.30;;;;;;5031201;28;20242;-72
2022/07/17 03:45:53;;;;;;;1.55;1.45;;;22.70;58.20;;;;;;5032312;28;20209;-72
2022/07/17 03:48:18;;;;;;;1.40;1.30;;;22.80;58.30;;;;;;5048030;28;20179;-71
2022/07/17 03:50:44;;;;;;;1.73;1.50;;;22.70;58.20;;;;;;5030405;28;20632;-72
2022/07/17 03:53:10;;;;;;;1.40;1.35;;;22.70;58.20;;;;;;5032321;28;20270;-72
2022/07/17 03:55:36;;;;;;;1.63;1.52;;;22.70;58.10;;;;;;5030817;28;20200;-71
2022/07/17 03:58:02;;;;;;;1.50;1.40;;;22.80;58.20;;;;;;5031033;28;20202;-72
2022/07/17 04:00:28;;;;;;;1.33;1.23;;;22.80;58.20;;;;;;5030166;28;20199;-72
2022/07/17 04:02:54;;;;;;;1.70;1.60;;;22.70;58.20;;;;;;5032227;28;20221;-72
2022/07/17 04:05:20;;;;;;;1.40;1.30;;;22.70;58.10;;;;;;5030729;28;20187;-72
2022/07/17 04:07:46;;;;;;;1.50;1.40;;;22.80;58.20;;;;;;5032082;28;20190;-72
2022/07/17 04:10:14;;;;;;;2.08;1.50;;;22.70;58.10;;;;;;5046671;28;20183;-71
2022/07/17 04:12:41;;;;;;;1.80;1.70;;;22.70;58.20;;;;;;5030897;28;20195;-72
2022/07/17 04:15:09;;;;;;;1.35;1.25;;;22.80;58.30;;;;;;5031879;28;20673;-72
2022/07/17 04:17:35;;;;;;;1.90;1.30;;;22.80;58.20;;;;;;5030745;28;20241;-72
2022/07/17 04:20:02;;;;;;;1.50;1.40;;;22.70;58.20;;;;;;5030111;28;20236;-72
2022/07/17 04:22:27;;;;;;;1.90;1.60;;;22.80;58.20;;;;;;5030391;28;20191;-72
2022/07/17 04:24:53;;;;;;;1.60;1.50;;;22.70;58.20;;;;;;5047287;28;20222;-72
2022/07/17 04:27:19;;;;;;;1.40;1.30;;;22.80;58.20;;;;;;5030106;28;20825;-72
2022/07/17 04:29:45;;;;;;;1.50;1.40;;;22.70;58.20;;;;;;5030692;28;20219;-72
2022/07/17 04:32:11;;;;;;;1.20;1.20;;;22.70;58.20;;;;;;5050072;28;20190;-72
2022/07/17 04:34:37;;;;;;;1.50;1.40;;;22.70;58.20;;;;;;5034052;28;20190;-72
2022/07/17 04:37:03;;;;;;;1.60;1.50;;;22.80;58.30;;;;;;5050504;28;20187;-72
2022/07/17 04:39:30;;;;;;;1.73;1.58;;;22.70;58.20;;;;;;5051668;28;20187;-72
2022/07/17 04:41:57;;;;;;;1.50;1.40;;;22.80;58.10;;;;;;5047495;28;20212;-72
2022/07/17 04:44:23;;;;;;;1.15;1.15;;;22.70;58.10;;;;;;5030387;28;20215;-72
2022/07/17 04:46:48;;;;;;;1.55;1.45;;;22.80;58.20;;;;;;5031514;28;20179;-72
2022/07/17 04:49:14;;;;;;;1.73;1.55;;;22.70;58.00;;;;;;5030622;28;20190;-72
2022/07/17 04:51:40;;;;;;;1.50;1.45;;;22.70;58.10;;;;;;5030927;28;20202;-72
2022/07/17 04:54:06;;;;;;;1.30;1.30;;;22.70;58.10;;;;;;5014279;28;20187;-72
2022/07/17 04:56:32;;;;;;;1.50;1.40;;;22.70;58.10;;;;;;5030292;28;20202;-72
2022/07/17 04:58:58;;;;;;;1.85;1.75;;;22.80;58.20;;;;;;5031570;28;20231;-72
2022/07/17 05:01:23;;;;;;;1.45;1.40;;;22.80;58.10;;;;;;5029975;28;20699;-72
2022/07/17 05:03:50;;;;;;;1.30;1.20;;;22.70;58.20;;;;;;5031377;28;20660;-73
2022/07/17 05:06:16;;;;;;;1.50;1.40;;;22.70;58.10;;;;;;5031407;28;20184;-73
2022/07/17 05:08:41;;;;;;;1.45;1.42;;;22.70;58.20;;;;;;5030396;28;20183;-72
2022/07/17 05:11:07;;;;;;;1.30;1.20;;;22.70;58.10;;;;;;5030736;28;20195;-72
2022/07/17 05:13:34;;;;;;;1.27;1.27;;;22.70;58.20;;;;;;5013708;28;20651;-72
2022/07/17 05:16:00;;;;;;;1.40;1.30;;;22.70;58.20;;;;;;5030143;28;20183;-72
2022/07/17 05:18:25;;;;;;;1.83;1.73;;;22.70;58.20;;;;;;5031297;28;20210;-72
2022/07/17 05:20:51;;;;;;;1.48;1.38;;;22.80;58.30;;;;;;5029600;28;20208;-72
2022/07/17 05:23:17;;;;;;;1.60;1.50;;;22.80;58.30;;;;;;5030188;28;20199;-72
2022/07/17 05:25:43;;;;;;;1.98;1.40;;;22.70;58.20;;;;;;5029907;28;20213;-72
2022/07/17 05:28:09;;;;;;;1.67;1.40;;;22.70;58.20;;;;;;5030230;28;20179;-72
2022/07/17 05:30:35;;;;;;;1.35;1.35;;;22.80;58.30;;;;;;5030606;28;20176;-72
2022/07/17 05:33:01;;;;;;;1.65;1.55;;;22.80;58.30;;;;;;5030066;28;20187;-71
2022/07/17 05:35:27;;;;;;;1.35;1.25;;;22.70;58.20;;;;;;5031727;28;20186;-72
2022/07/17 05:37:52;;;;;;;1.35;1.25;;;22.70;58.20;;;;;;5030012;28;20219;-72
2022/07/17 05:40:18;;;;;;;1.20;1.20;;;22.70;58.20;;;;;;5032953;28;20230;-72
2022/07/17 05:42:44;;;;;;;1.52;1.42;;;22.70;58.20;;;;;;5033219;28;20211;-72
2022/07/17 05:45:10;;;;;;;1.30;1.23;;;22.70;58.20;;;;;;5034573;28;20176;-72
2022/07/17 05:47:35;;;;;;;1.63;1.52;;;22.70;58.10;;;;;;5033392;28;20186;-72
2022/07/17 05:50:01;;;;;;;1.80;1.38;;;22.70;58.10;;;;;;5034693;28;20183;-72
2022/07/17 05:52:27;;;;;;;1.48;1.30;;;22.70;58.10;;;;;;5032795;28;20294;-72
2022/07/17 05:54:53;;;;;;;1.65;1.55;;;22.70;58.10;;;;;;5033265;28;20191;-72
2022/07/17 05:57:19;;;;;;;1.50;1.40;;;22.70;58.20;;;;;;5033033;28;20348;-72
2022/07/17 05:59:44;;;;;;;1.35;1.25;;;22.70;58.20;;;;;;5033291;28;20188;-72
2022/07/17 06:02:11;;;;;;;1.60;1.50;;;22.70;58.20;;;;;;5032650;28;20219;-72
2022/07/17 06:04:36;;;;;;;1.63;1.52;;;22.70;58.20;;;;;;5034143;28;20294;-72
2022/07/17 06:07:02;;;;;;;1.33;1.23;;;22.70;58.20;;;;;;5034273;28;20309;-72
2022/07/17 06:09:28;;;;;;;1.80;1.70;;;22.70;58.20;;;;;;5032993;28;20215;-72
2022/07/17 06:11:54;;;;;;;1.45;1.35;;;22.70;58.20;;;;;;5032241;28;20203;-72
2022/07/17 06:14:20;;;;;;;1.27;1.25;;;22.70;58.20;;;;;;5032924;28;20192;-72
2022/07/17 06:16:45;;;;;;;1.50;1.40;;;22.70;58.80;;;;;;5033988;28;20187;-72
2022/07/17 06:19:11;;;;;;;1.42;1.33;;;22.70;58.20;;;;;;5034001;28;20187;-73
2022/07/17 06:21:37;;;;;;;1.40;1.30;;;22.70;58.20;;;;;;5044816;28;20217;-72
2022/07/17 06:24:03;;;;;;;1.70;1.60;;;22.70;58.20;;;;;;5052903;28;20218;-72
2022/07/17 06:26:29;;;;;;;1.63;1.52;;;22.70;58.20;;;;;;5035992;28;20191;-72
2022/07/17 06:28:54;;;;;;;1.40;1.30;;;22.70;58.10;;;;;;5052783;28;20210;-72
2022/07/17 06:31:21;;;;;;;1.58;1.48;;;22.70;58.10;;;;;;5053023;28;20285;-71
2022/07/17 06:33:47;;;;;;;1.60;1.50;;;22.70;58.20;;;;;;5035803;28;20221;-72
2022/07/17 06:36:12;;;;;;;1.27;1.25;;;22.70;58.20;;;;;;5052289;28;20732;-72
2022/07/17 06:38:38;;;;;;;1.63;1.52;;;22.70;58.20;;;;;;5019344;28;20191;-72
2022/07/17 06:41:04;;;;;;;1.60;1.50;;;22.70;58.20;;;;;;5035050;28;20211;-72
2022/07/17 06:43:30;;;;;;;1.38;1.27;;;22.70;58.20;;;;;;5052184;28;20218;-72
2022/07/17 06:45:56;;;;;;;1.50;1.40;;;22.70;58.20;;;;;;5053495;28;20175;-71
2022/07/17 06:48:22;;;;;;;1.63;1.52;;;22.70;58.20;;;;;;5050798;28;20192;-71
2022/07/17 06:50:48;;;;;;;1.15;1.15;;;22.70;58.20;;;;;;5051027;28;20182;-71
2022/07/17 06:53:14;;;;;;;1.98;1.55;;;22.70;58.10;;;;;;5052172;28;20265;-72
2022/07/17 06:55:41;;;;;;;1.50;1.40;;;22.70;58.20;;;;;;5052048;28;20191;-72
2022/07/17 06:58:07;;;;;;;2.65;1.40;;;22.70;58.20;;;;;;5051995;28;20190;-72
2022/07/17 07:00:33;;;;;;;1.45;1.30;;;22.70;58.20;;;;;;5051155;28;20828;-72
2022/07/17 07:02:59;;;;;;;1.45;1.35;;;22.70;58.20;;;;;;5051951;28;20229;-72
2022/07/17 07:05:25;;;;;;;1.50;1.40;;;22.70;58.20;;;;;;5053077;28;20186;-72
2022/07/17 07:07:50;;;;;;;1.40;1.30;;;22.70;58.20;;;;;;5051847;28;20205;-72
2022/07/17 07:10:16;;;;;;;1.40;1.30;;;22.70;58.20;;;;;;5067768;28;20190;-70
2022/07/17 07:12:42;;;;;;;1.40;1.30;;;22.70;58.20;;;;;;5034783;28;20214;-72
2022/07/17 07:15:10;;;;;;;1.42;1.38;;;22.70;58.20;;;;;;5034958;28;20273;-72
2022/07/17 07:17:37;;;;;;;1.20;1.20;;;22.70;58.20;;;;;;5051601;28;20186;-72
2022/07/17 07:20:04;;;;;;;1.50;1.40;;;22.70;58.20;;;;;;5051576;28;20182;-72
2022/07/17 07:22:31;;;;;;;2.17;1.40;;;22.70;58.20;;;;;;5051330;28;20206;-72
2022/07/17 07:24:57;;;;;;;1.13;1.13;;;22.70;58.20;;;;;;5051349;28;20214;-72
2022/07/17 07:27:23;;;;;;;1.10;1.10;;;22.70;58.20;;;;;;5051358;28;20182;-71
2022/07/17 07:29:49;;;;;;;1.63;1.52;;;22.70;58.20;;;;;;5052583;28;20179;-71
2022/07/17 07:32:15;;;;;;;1.50;1.40;;;22.80;58.20;;;;;;5050868;28;20206;-72
2022/07/17 07:34:42;;;;;;;1.70;1.60;;;22.70;58.20;;;;;;5051289;28;20654;-72
2022/07/17 07:37:08;;;;;;;1.50;1.40;;;22.70;58.20;;;;;;5051195;28;20198;-72
2022/07/17 07:39:33;;;;;;;1.60;1.50;;;22.80;58.30;;;;;;5052484;28;20175;-72
2022/07/17 07:41:59;;;;;;;1.50;1.40;;;22.80;58.20;;;;;;5051571;28;20251;-72
2022/07/17 07:44:26;;;;;;;1.33;1.33;;;22.70;58.20;;;;;;5053739;28;20221;-72
2022/07/17 07:46:52;;;;;;;2.35;1.30;;;22.70;58.10;;;;;;5051243;28;20210;-72
2022/07/17 07:49:18;;;;;;;1.58;1.40;;;22.80;58.30;;;;;;5067701;28;20179;-72
2022/07/17 07:51:44;;;;;;;1.80;1.70;;;22.70;58.20;;;;;;5050341;28;20203;-73
2022/07/17 07:54:10;;;;;;;1.40;1.30;;;22.70;58.20;;;;;;5050871;28;20224;-72
2022/07/17 07:56:36;;;;;;;1.30;1.30;;;22.70;58.20;;;;;;5052039;28;20186;-72
2022/07/17 07:59:02;;;;;;;1.42;1.33;;;22.80;58.30;;;;;;5051089;28;20186;-72
2022/07/17 08:01:28;;;;;;;1.50;1.40;;;22.70;58.20;;;;;;5049495;28;20241;-72
2022/07/17 08:03:54;;;;;;;1.50;1.40;;;22.70;58.10;;;;;;5050732;28;20260;-72
2022/07/17 08:06:20;;;;;;;1.30;1.20;;;22.80;58.10;;;;;;5051919;28;20638;-72
2022/07/17 08:08:45;;;;;;;1.42;1.33;;;22.80;58.00;;;;;;5052099;28;20254;-72
2022/07/17 08:11:12;;;;;;;1.30;1.20;;;22.80;57.90;;;;;;5049842;28;20686;-71
2022/07/17 08:13:38;;;;;;;1.65;1.40;;;22.90;58.10;;;;;;5052071;28;20182;-71
2022/07/17 08:16:05;;;;;;;1.33;1.33;;;22.90;58.10;;;;;;5050723;28;20286;-72
2022/07/17 08:18:31;;;;;;;1.65;1.55;;;22.90;58.10;;;;;;5051781;28;20186;-72
2022/07/17 08:20:56;;;;;;;2.00;1.63;;;22.90;57.90;;;;;;5049660;28;20211;-71
2022/07/17 08:23:22;;;;;;;1.40;1.30;;;22.90;57.90;;;;;;5033855;28;20252;-72
2022/07/17 08:25:48;;;;;;;1.73;1.63;;;22.90;57.70;;;;;;5050458;28;20210;-72
2022/07/17 08:28:14;;;;;;;1.85;1.75;;;22.90;57.90;;;;;;5034055;28;20197;-72
2022/07/17 08:30:40;;;;;;;1.52;1.42;;;22.90;57.90;;;;;;5050076;28;20206;-72
2022/07/17 08:33:08;;;;;;;1.80;1.70;;;22.90;57.80;;;;;;5050474;28;20182;-72
2022/07/17 08:35:36;;;;;;;1.83;1.63;;;22.90;57.90;;;;;;5033899;28;20202;-72
2022/07/17 08:38:02;;;;;;;1.60;1.50;;;22.90;57.80;;;;;;5051692;28;20189;-72
2022/07/17 08:40:32;;;;;;;1.88;1.42;;;23.00;57.90;;;;;;5033439;28;20182;-72
2022/07/17 08:43:00;;;;;;;1.98;1.70;;;23.00;57.90;;;;;;5031831;28;20229;-72
2022/07/17 08:45:26;;;;;;;2.47;2.03;;;23.00;58.00;;;;;;5050548;28;20186;-72
2022/07/17 08:47:55;;;;;;;1.80;1.70;;;23.00;57.80;;;;;;5033843;28;20190;-72
2022/07/17 08:50:29;;;;;;;2.63;2.42;;;23.00;58.10;;;;;;5066766;28;20194;-72
2022/07/17 08:52:54;;;;;;;1.67;1.58;;;23.10;58.00;;;;;;5050262;28;20210;-72
2022/07/17 08:55:21;;;;;;;1.70;1.60;;;23.10;58.30;;;;;;5049929;28;20213;-72
2022/07/17 08:57:47;;;;;;;1.77;1.67;;;23.10;58.10;;;;;;5050420;28;20195;-72
2022/07/17 09:00:18;;;;;;;1.52;1.42;;;23.10;58.50;;;;;;5050132;28;20194;-72
2022/07/17 09:03:06;;;;;;;1.60;1.50;;;23.10;58.10;;;;;;5032925;28;20281;-72
2022/07/17 09:05:35;;;;;;;1.85;1.75;;;23.10;58.00;;;;;;5050205;28;20194;-72
2022/07/17 09:08:03;;;;;;;1.95;1.75;;;23.10;58.10;;;;;;5050277;28;20213;-72
2022/07/17 09:10:36;;;;;;;1.80;1.70;;;23.20;58.00;;;;;;5050688;28;20185;-72
2022/07/17 09:13:28;;;;;;;1.50;1.40;;;23.10;58.00;;;;;;5068490;28;20186;-72
2022/07/17 09:16:14;;;;;;;1.50;1.40;;;23.10;57.70;;;;;;5055070;28;20185;-73
2022/07/17 09:18:57;;;;;;;1.80;1.67;;;23.10;57.80;;;;;;5055003;28;20258;-71
2022/07/17 09:21:28;;;;;;;1.67;1.58;;;23.10;58.00;;;;;;5054831;28;20201;-72
2022/07/17 09:24:20;;;;;;;1.55;1.45;;;23.20;58.10;;;;;;5054916;28;20226;-72
2022/07/17 09:26:46;;;;;;;1.73;1.63;;;23.10;57.80;;;;;;5050871;28;20205;-72
2022/07/17 09:29:12;;;;;;;1.55;1.45;;;23.10;58.00;;;;;;5053604;28;20187;-72
2022/07/17 09:31:38;;;;;;;1.52;1.42;;;23.10;58.00;;;;;;5053084;28;20217;-71
2022/07/17 09:34:04;;;;;;;2.03;1.83;;;23.10;58.00;;;;;;5053537;28;20596;-71
2022/07/17 09:36:30;;;;;;;1.63;1.52;;;23.10;57.90;;;;;;5036773;28;20193;-72
2022/07/17 09:38:58;;;;;;;1.65;1.55;;;23.10;58.00;;;;;;5054747;28;20171;-71
2022/07/17 09:41:26;;;;;;;1.70;1.60;;;23.20;58.20;;;;;;5052847;28;20202;-72
2022/07/17 09:44:00;;;;;;;1.70;1.60;;;23.10;58.20;;;;;;5069945;28;20214;-72
2022/07/17 09:46:32;;;;;;;1.40;1.30;;;23.10;58.10;;;;;;5054684;28;20186;-71
2022/07/17 09:49:09;;;;;;;1.58;1.48;;;23.10;58.20;;;;;;5036653;28;20197;-72
2022/07/17 09:51:39;;;;;;;1.60;1.50;;;23.10;57.90;;;;;;5052600;28;20226;-72
2022/07/17 09:54:10;;;;;;;1.70;1.60;;;23.10;58.00;;;;;;5036600;28;20204;-72
2022/07/17 09:56:38;;;;;;;1.38;1.27;;;23.10;58.00;;;;;;5053274;28;20281;-71
2022/07/17 09:59:11;;;;;;;1.80;1.70;;;23.10;57.70;;;;;;5054289;28;20237;-72
2022/07/17 10:01:40;;;;;;;1.80;1.70;;;23.10;58.00;;;;;;5069127;28;20224;-72
2022/07/17 10:04:07;;;;;;;1.77;1.67;;;23.10;58.40;;;;;;5054151;28;20253;-72
2022/07/17 10:06:33;;;;;;;1.70;1.60;;;23.20;58.40;;;;;;5052905;28;20183;-71
2022/07/17 10:09:00;;;;;;;1.70;1.60;;;23.10;58.30;;;;;;5036429;28;20217;-72
2022/07/17 10:11:33;;;;;;;1.50;1.40;;;23.10;58.20;;;;;;5035536;28;20618;-72
2022/07/17 10:14:25;;;;;;;1.60;1.50;;;23.10;58.30;;;;;;5053968;28;20182;-72
2022/07/17 10:16:51;;;;;;;1.50;1.40;;;23.20;58.10;;;;;;5065761;28;20604;-72
2022/07/17 10:19:24;;;;;;;1.40;1.35;;;23.20;58.00;;;;;;5053485;28;20723;-72
2022/07/17 10:21:59;;;;;;;1.70;1.60;;;23.10;57.80;;;;;;5035496;28;20747;-71
2022/07/17 10:24:29;;;;;;;1.60;1.50;;;23.20;58.00;;;;;;5051597;28;20263;-72
2022/07/17 10:26:55;;;;;;;2.28;1.65;;;23.20;58.00;;;;;;5035884;28;20620;-72
2022/07/17 10:29:36;;;;;;;1.90;1.58;;;23.20;57.90;;;;;;5052579;28;20182;-72
2022/07/17 10:32:09;;;;;;;1.63;1.52;;;23.20;57.90;;;;;;5052049;28;20206;-72
2022/07/17 10:34:45;;;;;;;1.80;1.70;;;23.20;58.00;;;;;;5052666;28;20226;-72
2022/07/17 10:37:26;;;;;;;1.63;1.52;;;23.20;57.80;;;;;;5052609;28;20179;-72
2022/07/17 10:40:15;;;;;;;2.15;1.42;;;23.20;57.90;;;;;;5052525;28;20182;-72
2022/07/17 10:42:50;;;;;;;1.65;1.55;;;23.20;57.60;;;;;;5052095;28;20303;-72
2022/07/17 10:45:42;;;;;;;1.75;1.65;;;23.20;57.50;;;;;;5035580;28;20213;-71
2022/07/17 10:48:16;;;;;;;1.70;1.60;;;23.20;57.60;;;;;;5050123;28;20213;-71
2022/07/17 10:50:46;;;;;;;1.70;1.60;;;23.20;57.70;;;;;;5068259;28;20193;-72
2022/07/17 10:53:28;;;;;;;1.75;1.65;;;23.20;57.80;;;;;;5052218;28;20179;-72
2022/07/17 10:56:04;;;;;;;1.65;1.55;;;23.20;57.60;;;;;;5052093;28;20210;-72
2022/07/17 10:58:39;;;;;;;1.60;1.50;;;23.20;57.60;;;;;;5053460;28;20214;-72
2022/07/17 11:01:19;;;;;;;1.48;1.38;;;23.20;57.80;;;;;;5035111;28;20769;-71
2022/07/17 11:03:53;;;;;;;1.50;1.40;;;23.20;57.60;;;;;;5035358;28;20596;-72
2022/07/17 11:06:32;;;;;;;1.67;1.58;;;23.20;57.40;;;;;;5051753;28;20193;-72
2022/07/17 11:09:08;;;;;;;1.50;1.40;;;23.30;57.70;;;;;;5052920;28;20171;-72
2022/07/17 11:11:45;;;;;;;1.50;1.40;;;23.20;57.50;;;;;;5067723;28;20206;-71
2022/07/17 11:14:21;;;;;;;1.65;1.55;;;23.30;57.70;;;;;;5051689;28;20186;-72
2022/07/17 11:16:55;;;;;;;1.40;1.35;;;23.30;57.70;;;;;;5051542;28;20222;-72
2022/07/17 11:19:27;;;;;;;1.67;1.58;;;23.20;57.70;;;;;;5068404;28;20189;-71
2022/07/17 11:21:57;;;;;;;1.50;1.40;;;23.30;57.80;;;;;;5052288;28;20301;-71
2022/07/17 11:24:23;;;;;;;1.48;1.38;;;23.20;57.80;;;;;;5052687;28;20203;-73
2022/07/17 11:26:50;;;;;;;1.65;1.55;;;23.20;57.40;;;;;;5035048;28;20171;-71
2022/07/17 11:29:17;;;;;;;1.40;1.30;;;23.30;57.70;;;;;;5068147;28;20197;-72
2022/07/17 11:31:44;;;;;;;1.42;1.38;;;23.30;57.90;;;;;;5050928;28;20194;-71
2022/07/17 11:34:11;;;;;;;1.35;1.25;;;23.30;57.60;;;;;;5051222;28;20178;-72
2022/07/17 11:36:39;;;;;;;1.50;1.40;;;23.30;57.50;;;;;;5051523;28;20187;-72
2022/07/17 11:39:11;;;;;;;1.77;1.67;;;23.30;57.50;;;;;;5051327;28;20186;-72
2022/07/17 11:41:58;;;;;;;1.58;1.48;;;23.30;57.50;;;;;;5051821;28;20289;-71
2022/07/17 11:44:24;;;;;;;1.58;1.45;;;23.30;57.60;;;;;;5034529;28;20774;-71
2022/07/17 11:46:51;;;;;;;1.70;1.60;;;23.30;57.70;;;;;;5051148;28;20540;-71
2022/07/17 11:49:28;;;;;;;1.50;1.40;;;23.30;57.60;;;;;;5067905;28;20254;-72
2022/07/17 11:52:06;;;;;;;1.70;1.60;;;23.30;57.50;;;;;;5033722;28;20210;-72
2022/07/17 11:54:31;;;;;;;1.60;1.50;;;23.30;57.50;;;;;;5034254;28;20190;-72
2022/07/17 11:56:58;;;;;;;1.77;1.40;;;23.30;57.60;;;;;;5052250;28;20232;-71
2022/07/17 11:59:31;;;;;;;1.50;1.40;;;23.30;57.50;;;;;;5032690;28;20197;-72
2022/07/17 12:02:07;;;;;;;1.55;1.45;;;23.30;57.30;;;;;;5067136;28;20739;-73
2022/07/17 12:04:33;;;;;;;1.48;1.38;;;23.30;57.30;;;;;;5050518;28;20256;-72
2022/07/17 12:07:02;;;;;;;1.60;1.50;;;23.30;57.20;;;;;;5052022;28;20229;-72
2022/07/17 12:09:33;;;;;;;1.40;1.30;;;23.30;57.10;;;;;;5050735;28;20226;-72
2022/07/17 12:12:00;;;;;;;1.60;1.50;;;23.30;57.10;;;;;;5050025;28;20226;-73
2022/07/17 12:14:26;;;;;;;1.55;1.45;;;23.30;57.50;;;;;;5050581;28;20315;-72
2022/07/17 12:16:52;;;;;;;1.40;1.30;;;23.30;57.60;;;;;;5051792;28;20182;-72
2022/07/17 12:19:23;;;;;;;1.50;1.40;;;23.30;57.30;;;;;;5050242;28;20269;-72
2022/07/17 12:22:01;;;;;;;1.58;1.48;;;23.40;57.40;;;;;;5050591;28;20202;-72
2022/07/17 12:24:39;;;;;;;1.55;1.45;;;23.30;57.50;;;;;;5051083;28;20194;-71
2022/07/17 12:27:12;;;;;;;1.30;1.20;;;23.30;57.50;;;;;;5052315;28;20166;-71
2022/07/17 12:29:40;;;;;;;1.40;1.30;;;23.30;57.90;;;;;;5034895;28;20178;-71
2022/07/17 12:32:15;;;;;;;1.40;1.30;;;23.30;57.40;;;;;;5049796;28;20285;-71
2022/07/17 12:34:48;;;;;;;1.38;1.27;;;23.30;57.00;;;;;;5052163;28;20216;-72
2022/07/17 12:37:19;;;;;;;1.30;1.23;;;23.30;57.10;;;;;;5051143;28;20193;-71
2022/07/17 12:39:47;;;;;;;1.50;1.40;;;23.40;56.90;;;;;;5051070;28;20245;-72
2022/07/17 12:42:17;;;;;;;1.60;1.50;;;23.30;57.40;;;;;;5050322;28;20206;-71
2022/07/17 12:44:43;;;;;;;1.50;1.40;;;23.40;57.20;;;;;;5052020;28;20245;-72
2022/07/17 12:47:09;;;;;;;1.15;1.15;;;23.30;57.10;;;;;;5052415;28;20206;-72
2022/07/17 12:49:35;;;;;;;1.58;1.48;;;23.30;57.00;;;;;;5055066;28;20218;-69
2022/07/17 12:52:02;;;;;;;1.50;1.40;;;23.30;57.10;;;;;;5044111;28;20203;-69